Atka, Alaska
Current Conditions -  °F | °C
As of 6:16 AM on Sunday 23 Nov 2014 (Local Time) from PAAK Reporting Station
Broken Clouds Broken Clouds  
Wind Chill: 26°   Ceiling: 3500
Heat Index: 37°   Visibility: 10mi
Dew Point: 30°   Wind: 25mph
Humidity: 75%   Direction: 290°WNW
Pressure: 29.6"   Gusts: 30mph
Location:  52.19°N, 174.2°W
Report Text: PAAK 231616Z 29022G26KT 10SM FEW015 SCT024 BKN035 03/M01 A2960 RMK AO1
Loading
Personal Weather Stations






























Interactive Weather Map New forecast layout! Learn more

10-Day Weather Forecast

Advertisements
Track Severe Weather on mobile